Monday, June 18, 2018, 8:43 PM EDT
Back to Local

KFDK, Frederick, Frederick Municipal Airport

Location: Frederick, MD, United States Lat: 39.417
Local Time: 8:43 PM EDT ( 0:43 GMT) Lon: -77.374
Time Zone: US/Eastern Elev: 301 ft

Show me the last for .
Show Decoded

2018-06-18 19:48 METAR KFDK 182348Z 20004KT 10SM SKC 32/22 A2990 =
2018-06-18 18:48 METAR KFDK 182248Z 25010KT 10SM SKC 34/19 A2991 =
2018-06-18 17:48 METAR KFDK 182148Z 17003KT 10SM SKC 33/20 A2994 =
2018-06-18 16:48 METAR KFDK 182048Z 17003KT 10SM SKC 31/23 A2996 =
2018-06-18 15:48 METAR KFDK 181948Z 23010G22KT 7SM VCTSRA SCT0266 BKN048 28/18 A2998 RMK VIS S 2
                 TS SE MOV SE =
2018-06-18 15:20 METAR KFDK 181920Z 28007KT 250V310 10 SM TS BKN046 34/19 A2999 RMK TB1919 TS NW
                 MOVG E =
2018-06-18 14:55 METAR KFDK 181855Z 24007KT 10SM SCT046 34/21 A2999 =
2018-06-18 13:47 METAR KFDK 181747Z 25008KT 7SM SCT043 34/22 A3002 =
2018-06-18 12:47 METAR KFDK 181647Z 23007KT 7SM SKC 32/21 A3005 =
2018-06-18 11:47 METAR KFDK 181547Z 23008KT 7SM SCT050 31/21 A3006 =
2018-06-18 10:47 METAR KFDK 181447Z 23006KT 7SM SKC 30/20 A3007 =
2018-06-18 09:47 METAR KFDK 181347Z 23005KT 7SM SKC 28/19 A3008 =
2018-06-18 08:47 METAR KFDK 181247Z 20004KT 7SM SKC 26/19 A3009 =
2018-06-18 07:47 METAR KFDK 181147Z 00000KT 10SM SKC 24/23 A3010 =
2018-06-18 06:45 METAR KFDK 181045Z AUTO 00000KT 7SM CLR 21/21 A3010 RMK AO2 =
2018-06-18 06:25 METAR KFDK 181025Z AUTO 00000KT 2 1/2SM BR CLR 20/20 A3010 RMK AO2 =
2018-06-18 06:05 METAR KFDK 181005Z AUTO 00000KT 5SM BR CLR 20/20 A3010 RMK AO2 =
2018-06-18 05:45 METAR KFDK 180945Z AUTO 00000KT 5SM BR CLR 20/20 A3010 RMK AO2 =
2018-06-18 05:25 METAR KFDK 180925Z AUTO 00000KT 5SM BR CLR 20/20 A3010 RMK AO2 =
2018-06-18 05:05 METAR KFDK 180905Z AUTO 00000KT 5SM BR CLR 20/20 A3010 RMK AO2 =
2018-06-18 04:45 METAR KFDK 180845Z AUTO 00000KT 7SM CLR 20/20 A3010 RMK AO2 =
2018-06-18 04:25 METAR KFDK 180825Z AUTO 00000KT 10SM CLR 21/21 A3009 RMK AO2 =
2018-06-18 04:05 METAR KFDK 180805Z AUTO 00000KT 10SM CLR 21/21 A3010 RMK AO2 =
2018-06-18 03:45 METAR KFDK 180745Z AUTO 00000KT 10SM CLR 21/21 A3010 RMK AO2 =
2018-06-18 03:25 METAR KFDK 180725Z AUTO 17003KT 10SM CLR 21/21 A3010 RMK AO2 =
2018-06-18 03:05 METAR KFDK 180705Z AUTO 00000KT 10SM CLR 21/21 A3010 RMK AO2 =
2018-06-18 02:45 METAR KFDK 180645Z AUTO 00000KT 10SM CLR 21/21 A3010 RMK AO2 =
2018-06-18 02:25 METAR KFDK 180625Z AUTO 15004KT 7SM CLR 21/21 A3010 RMK AO2 =
2018-06-18 02:05 METAR KFDK 180605Z AUTO 00000KT 5SM BR CLR 20/20 A3010 RMK AO2 =
2018-06-18 01:45 METAR KFDK 180545Z AUTO 00000KT 10SM CLR 21/21 A3010 RMK AO2 =
2018-06-18 01:25 METAR KFDK 180525Z AUTO 00000KT 7SM CLR 21/21 A3010 RMK AO2 =
2018-06-18 01:05 METAR KFDK 180505Z AUTO 00000KT 7SM CLR 21/21 A3011 RMK AO2 =
2018-06-18 00:45 METAR KFDK 180445Z AUTO 00000KT 10SM CLR 22/22 A3010 RMK AO2 =
2018-06-18 00:25 METAR KFDK 180425Z AUTO 00000KT 10SM CLR 22/22 A3010 RMK AO2 =
2018-06-18 00:05 METAR KFDK 180405Z AUTO 00000KT 10SM CLR 22/22 A3010 RMK AO2 =
2018-06-17 23:45 METAR KFDK 180345Z AUTO 00000KT 10SM CLR 22/22 A3010 RMK AO2 =
2018-06-17 23:25 METAR KFDK 180325Z AUTO 00000KT 10SM CLR 22/22 A3010 RMK AO2 =
2018-06-17 23:05 METAR KFDK 180305Z AUTO 00000KT 10SM CLR 23/23 A3010 RMK AO2 =
2018-06-17 22:45 METAR KFDK 180245Z AUTO 00000KT 10SM CLR 23/23 A3010 RMK AO2 =
2018-06-17 22:25 METAR KFDK 180225Z AUTO 00000KT 10SM CLR 23/23 A3010 RMK AO2 =
2018-06-17 22:05 METAR KFDK 180205Z AUTO 00000KT 10SM CLR 23/23 A3010 RMK AO2 =
2018-06-17 21:45 METAR KFDK 180145Z AUTO 13003KT 10SM CLR 24/23 A3009 RMK AO2 =
2018-06-17 21:25 METAR KFDK 180125Z AUTO 14003KT 10SM CLR 24/20 A3009 RMK AO2 =
2018-06-17 21:05 METAR KFDK 180105Z AUTO 00000KT 10SM CLR 25/20 A3009 RMK AO2 LTG DSNT SE =

Support USWX by starting your Amazon purchase here.